createdAt,value
2018-10-03T00:00:51.109Z,69.54
2018-10-03T00:15:50.723Z,70.05
2018-10-03T00:30:50.759Z,70.61
2018-10-03T00:45:53.313Z,70.57
2018-10-03T01:00:51.257Z,69.13
2018-10-03T01:15:51.070Z,68.88
2018-10-03T01:30:51.186Z,68.83
2018-10-03T01:45:50.658Z,67.36
2018-10-03T02:00:50.095Z,67.81
2018-10-03T02:15:52.525Z,67.16
2018-10-03T02:30:50.665Z,66.96
2018-10-03T02:45:50.854Z,66.50
2018-10-03T03:00:50.856Z,67.41
2018-10-03T03:15:51.688Z,66.54
2018-10-03T03:30:50.719Z,66.27
2018-10-03T03:45:51.227Z,66.14
2018-10-03T04:00:51.159Z,65.74
2018-10-03T04:15:53.090Z,65.42
2018-10-03T04:30:51.070Z,65.08
2018-10-03T04:45:51.899Z,64.70
2018-10-03T05:00:51.389Z,64.43
2018-10-03T05:15:51.614Z,64.18
2018-10-03T05:30:51.298Z,63.02
2018-10-03T05:45:52.742Z,61.53
2018-10-03T06:00:50.922Z,59.59
2018-10-03T06:15:50.602Z,57.94
2018-10-03T06:30:50.498Z,54.89
2018-10-03T07:00:53.691Z,48.50
2018-10-03T07:15:50.891Z,45.73
2018-10-03T07:30:51.179Z,43.08
2018-10-03T07:45:51.270Z,41.09
2018-10-03T08:00:51.227Z,38.96
2018-10-03T08:15:51.159Z,38.04
2018-10-03T08:30:51.126Z,36.75
2018-10-03T08:45:50.438Z,36.31
2018-10-03T09:00:51.387Z,34.36
2018-10-03T09:15:51.394Z,33.62
2018-10-03T09:30:51.333Z,33.13
2018-10-03T09:45:50.736Z,33.49
2018-10-03T10:00:55.699Z,34.82
2018-10-03T10:15:52.618Z,39.38
2018-10-03T10:30:50.537Z,34.50
2018-10-03T10:45:50.947Z,35.12
2018-10-03T11:00:50.959Z,34.74
2018-10-03T11:15:50.919Z,34.59
2018-10-03T11:30:51.130Z,34.61
2018-10-03T11:45:54.132Z,35.70
2018-10-03T12:00:53.765Z,36.07
2018-10-03T12:15:51.770Z,35.88
2018-10-03T12:30:51.364Z,35.96
2018-10-03T12:45:50.531Z,37.06
2018-10-03T13:00:50.454Z,37.94
2018-10-03T13:15:50.530Z,38.22
2018-10-03T13:30:50.659Z,39.59
2018-10-03T13:45:50.628Z,40.89
2018-10-03T14:00:50.810Z,40.71
2018-10-03T14:15:50.455Z,40.99
2018-10-03T14:30:50.512Z,41.38
2018-10-03T14:45:50.852Z,42.52
2018-10-03T15:00:51.243Z,42.67
2018-10-03T15:15:50.762Z,41.93
2018-10-03T15:30:50.651Z,42.44
2018-10-03T15:45:51.043Z,43.72
2018-10-03T16:00:51.039Z,44.55
2018-10-03T17:45:50.614Z,45.46
2018-10-03T18:00:50.666Z,45.35
2018-10-03T18:15:50.568Z,44.44
2018-10-03T18:30:50.439Z,43.86
2018-10-03T18:45:50.935Z,44.02
2018-10-03T19:00:51.101Z,43.16
2018-10-03T19:15:59.423Z,42.68
2018-10-03T19:30:50.739Z,43.07
2018-10-03T19:45:50.541Z,44.23
2018-10-03T20:00:50.227Z,44.32
2018-10-03T20:15:53.198Z,44.85
2018-10-03T20:30:53.071Z,44.67
2018-10-03T20:45:52.347Z,44.81
2018-10-03T21:00:50.361Z,44.65
2018-10-03T21:15:50.473Z,45.55
2018-10-03T21:30:50.269Z,45.85
2018-10-03T21:45:52.731Z,45.83
2018-10-03T22:00:52.870Z,46.61
2018-10-03T22:15:50.651Z,46.97
2018-10-03T22:30:50.221Z,47.10
2018-10-03T22:45:56.526Z,48.37
2018-10-03T23:00:51.214Z,48.61
2018-10-03T23:15:50.938Z,49.06
2018-10-03T23:30:51.351Z,49.46
2018-10-03T23:45:52.342Z,49.98
